»·PEaware :: UAL1054 KIAH-KLAX

UAL1054 :: KIAH-KLAX

FLIGHT INFORMATION

Flight Status: Arrived
Operator:
United Airlines
More flights by this operator :: More flights under this callsign
Pilot: Paul P. (20696)
Aircraft: BOEING 737-900
(B739)
More flights by this aircraft type
Origin: KIAH G Bush Intercontinental/Houst
United States
Destination: KLAX Los Angeles Intl
United States
More flights between these airports :: More routes between these airports
Route: BNDTO5 CRGER EWM/N0467F340 J4 MESSI ESTWD HLYWD1
File this flight plan on PilotEdge
Remarks: RMK / SIMBRIEF
Altitude:
(Current/Filed)
32,000ft
Speed:
(Current/Filed)
468kts
Departed: 04-Aug-23 10:48 AM
Arrived: 04-Aug-23 01:41 PM
Distance/Time
Traveled:
1195nm/2:53
Distance/Time
To Go:
Arrived

Flight Plot

Page will automatically refresh every two minutes.

Flight plan parsing failed; only flown route is shown


Map Options




Map Legend


Flown Route
Filed Route
Departure Airport
Arrival Airport
Navaid (VOR, NDB)
Fix

Horizontal Profiles

Position Reports

Time Latitude Longitude Heading Altitude Ground
Speed
04-Aug-23 10:13 29.984550 -95.338965 78 106ft 0kts
04-Aug-23 10:14 29.984550 -95.338965 78 106ft 0kts
04-Aug-23 10:15 29.984550 -95.338965 78 106ft 0kts
04-Aug-23 10:16 29.984550 -95.338965 78 106ft 0kts
04-Aug-23 10:17 29.984550 -95.338965 78 106ft 0kts
04-Aug-23 10:18 29.984550 -95.338965 78 106ft 0kts
04-Aug-23 10:19 29.984550 -95.338965 78 106ft 0kts
04-Aug-23 10:20 29.984550 -95.338965 78 106ft 0kts
04-Aug-23 10:21 29.984550 -95.338965 78 106ft 0kts
04-Aug-23 10:22 29.984550 -95.338965 78 106ft 0kts
04-Aug-23 10:23 29.984550 -95.338965 78 106ft 0kts
04-Aug-23 10:24 29.984550 -95.338965 78 106ft 0kts
04-Aug-23 10:25 29.984550 -95.338965 78 106ft 0kts
04-Aug-23 10:26 29.984550 -95.338965 78 106ft 0kts
04-Aug-23 10:27 29.984550 -95.338965 78 106ft 0kts
04-Aug-23 10:28 29.984550 -95.338965 78 106ft 0kts
04-Aug-23 10:29 29.984550 -95.338965 78 106ft 0kts
04-Aug-23 10:30 29.984550 -95.338965 78 106ft 0kts
04-Aug-23 10:30 29.984550 -95.338965 78 106ft 0kts
04-Aug-23 10:32 29.984550 -95.338965 78 106ft 0kts
04-Aug-23 10:33 29.984550 -95.338965 78 106ft 0kts
04-Aug-23 10:34 29.984550 -95.338965 78 106ft 0kts
04-Aug-23 10:34 29.984550 -95.338965 78 106ft 0kts
04-Aug-23 10:35 29.984509 -95.339199 78 105ft 2kts
04-Aug-23 10:36 29.984223 -95.339974 37 105ft 2kts
04-Aug-23 10:38 29.983389 -95.339849 317 105ft 2kts
04-Aug-23 10:39 29.983167 -95.339138 270 106ft 2kts
04-Aug-23 10:39 29.983166 -95.339020 270 106ft 0kts
04-Aug-23 10:40 29.983166 -95.339020 270 106ft 0kts
04-Aug-23 10:41 29.983167 -95.339038 270 106ft 0kts
04-Aug-23 10:42 29.983585 -95.340627 298 106ft 10kts
04-Aug-23 10:44 29.983784 -95.346312 269 106ft 19kts
04-Aug-23 10:44 29.983799 -95.351673 275 106ft 16kts
04-Aug-23 10:45 29.987234 -95.354109 331 106ft 13kts
04-Aug-23 10:46 29.988226 -95.356892 242 105ft 11kts
04-Aug-23 10:47 29.978682 -95.352232 152 107ft 131kts
04-Aug-23 10:48 29.934922 -95.342579 227 1365ft 207kts
04-Aug-23 10:49 29.940583 -95.417064 282 3018ft 262kts
04-Aug-23 10:50 29.956833 -95.501159 280 6025ft 276kts
04-Aug-23 10:51 29.970268 -95.590200 279 8684ft 288kts
04-Aug-23 10:52 29.987052 -95.684220 284 10484ft 327kts
04-Aug-23 10:53 30.012255 -95.796060 284 11292ft 380kts
04-Aug-23 10:54 30.038380 -95.915149 283 13191ft 389kts
04-Aug-23 10:55 30.065219 -96.038315 283 14869ft 399kts
04-Aug-23 10:56 30.086647 -96.165250 278 16361ft 409kts
04-Aug-23 10:57 30.106680 -96.296471 278 17755ft 419kts
04-Aug-23 10:58 30.127215 -96.430437 278 18945ft 428kts
04-Aug-23 10:59 30.147958 -96.566808 278 19996ft 437kts
04-Aug-23 11:00 30.169086 -96.706775 278 21011ft 445kts
04-Aug-23 11:01 30.190393 -96.848896 278 22003ft 452kts
04-Aug-23 11:02 30.211845 -96.993168 278 22889ft 459kts
04-Aug-23 11:03 30.233535 -97.139482 278 23685ft 465kts
04-Aug-23 11:04 30.255534 -97.287274 278 24379ft 468kts
04-Aug-23 11:05 30.277492 -97.436199 278 25116ft 470kts
04-Aug-23 11:06 30.299378 -97.585912 278 25791ft 472kts
04-Aug-23 11:07 30.321300 -97.735853 279 26457ft 474kts
04-Aug-23 11:08 30.352792 -97.884600 282 27079ft 477kts
04-Aug-23 11:09 30.384612 -98.033600 282 27792ft 475kts
04-Aug-23 11:10 30.415535 -98.181816 282 28758ft 470kts
04-Aug-23 11:11 30.446001 -98.328443 282 29828ft 466kts
04-Aug-23 11:12 30.477812 -98.473303 283 30796ft 463kts
04-Aug-23 11:13 30.510121 -98.617904 283 31748ft 461kts
04-Aug-23 11:14 30.541832 -98.761707 282 31979ft 462kts
04-Aug-23 11:15 30.573473 -98.906070 282 31972ft 463kts
04-Aug-23 11:16 30.605103 -99.051174 282 31953ft 464kts
04-Aug-23 11:17 30.636578 -99.196407 282 31948ft 463kts
04-Aug-23 11:18 30.667884 -99.341695 282 31934ft 463kts
04-Aug-23 11:19 30.698872 -99.486341 282 31954ft 463kts
04-Aug-23 11:20 30.729810 -99.631624 282 31978ft 462kts
04-Aug-23 11:21 30.760477 -99.776462 282 31975ft 462kts
04-Aug-23 11:22 30.791084 -99.921862 282 31952ft 463kts
04-Aug-23 11:23 30.821538 -100.067448 282 31933ft 463kts
04-Aug-23 11:24 30.851904 -100.213437 282 31939ft 464kts
04-Aug-23 11:25 30.882024 -100.359139 281 31943ft 465kts
04-Aug-23 11:26 30.912178 -100.505938 281 31953ft 465kts
04-Aug-23 11:27 30.942072 -100.652276 281 31944ft 465kts
04-Aug-23 11:28 30.971816 -100.798824 281 31941ft 464kts
04-Aug-23 11:29 31.001329 -100.945137 281 31943ft 464kts
04-Aug-23 11:30 31.030627 -101.091313 281 31958ft 463kts
04-Aug-23 11:31 31.059790 -101.237699 281 31951ft 463kts
04-Aug-23 11:32 31.088824 -101.384382 281 31930ft 464kts
04-Aug-23 11:33 31.117683 -101.531087 281 31921ft 465kts
04-Aug-23 11:34 31.146499 -101.678522 281 31922ft 466kts
04-Aug-23 11:35 31.175248 -101.826576 281 31914ft 466kts
04-Aug-23 11:36 31.203731 -101.974186 281 31906ft 466kts
04-Aug-23 11:37 31.232024 -102.121806 281 31903ft 465kts
04-Aug-23 11:38 31.260107 -102.269311 281 31890ft 464kts
04-Aug-23 11:39 31.287898 -102.416249 281 31882ft 463kts
04-Aug-23 11:40 31.315514 -102.563173 281 31879ft 462kts
04-Aug-23 11:41 31.342797 -102.709342 281 31877ft 461kts
04-Aug-23 11:42 31.369954 -102.855802 281 31872ft 460kts
04-Aug-23 11:43 31.396864 -103.001908 281 31864ft 459kts
04-Aug-23 11:44 31.423635 -103.148250 281 31884ft 459kts
04-Aug-23 11:45 31.450174 -103.294304 281 31948ft 459kts
04-Aug-23 11:46 31.476581 -103.440620 281 31995ft 459kts
04-Aug-23 11:47 31.502828 -103.587062 281 31983ft 459kts
04-Aug-23 11:48 31.528917 -103.733645 281 31932ft 459kts
04-Aug-23 11:49 31.554870 -103.880475 281 31875ft 460kts
04-Aug-23 11:50 31.580580 -104.026972 281 31880ft 460kts
04-Aug-23 11:51 31.606244 -104.174237 281 31893ft 460kts
04-Aug-23 11:52 31.631716 -104.321463 281 31902ft 460kts
04-Aug-23 11:53 31.656989 -104.468590 281 31916ft 459kts
04-Aug-23 11:54 31.682051 -104.615539 281 31928ft 459kts
04-Aug-23 11:55 31.706945 -104.762572 281 31932ft 459kts
04-Aug-23 11:56 31.731643 -104.909513 281 31926ft 458kts
04-Aug-23 11:57 31.756145 -105.056378 281 31912ft 458kts
04-Aug-23 11:58 31.780515 -105.203532 281 31905ft 458kts
04-Aug-23 11:59 31.804660 -105.350427 281 31897ft 459kts
04-Aug-23 12:00 31.828647 -105.497460 282 31894ft 458kts
04-Aug-23 12:01 31.852506 -105.644830 282 31891ft 458kts
04-Aug-23 12:02 31.876064 -105.791458 282 31888ft 457kts
04-Aug-23 12:03 31.899589 -105.939008 282 31880ft 457kts
04-Aug-23 12:04 31.922814 -106.085821 282 31928ft 457kts
04-Aug-23 12:05 31.945913 -106.232970 282 32072ft 455kts
04-Aug-23 12:06 31.965547 -106.380454 279 32587ft 457kts
04-Aug-23 12:07 31.982102 -106.528699 280 33087ft 456kts
04-Aug-23 12:08 31.999088 -106.676384 280 33647ft 453kts
04-Aug-23 12:09 32.015863 -106.823125 280 34024ft 451kts
04-Aug-23 12:10 32.032568 -106.970722 280 33971ft 458kts
04-Aug-23 12:11 32.049234 -107.119817 280 33925ft 460kts
04-Aug-23 12:12 32.065777 -107.269479 280 33847ft 457kts
04-Aug-23 12:13 32.081903 -107.416895 280 33895ft 452kts
04-Aug-23 12:14 32.097755 -107.563346 280 34000ft 448kts
04-Aug-23 12:15 32.113371 -107.709176 280 34063ft 447kts
04-Aug-23 12:16 32.128774 -107.854650 280 34033ft 448kts
04-Aug-23 12:17 32.144086 -108.000918 279 33955ft 448kts
04-Aug-23 12:18 32.159214 -108.147101 279 33868ft 449kts
04-Aug-23 12:19 32.174227 -108.293847 279 33870ft 450kts
04-Aug-23 12:20 32.189029 -108.440245 279 33854ft 450kts
04-Aug-23 12:21 32.203675 -108.586809 279 33853ft 449kts
04-Aug-23 12:22 32.218149 -108.733412 279 33857ft 448kts
04-Aug-23 12:23 32.232427 -108.879724 279 33848ft 448kts
04-Aug-23 12:24 32.246456 -109.025298 279 33851ft 447kts
04-Aug-23 12:25 32.260362 -109.171288 279 33843ft 447kts
04-Aug-23 12:26 32.285770 -109.313366 294 33847ft 440kts
04-Aug-23 12:27 32.333204 -109.446648 294 33842ft 440kts
04-Aug-23 12:28 32.379821 -109.580073 294 33841ft 440kts
04-Aug-23 12:29 32.426277 -109.713972 294 33842ft 440kts
04-Aug-23 12:30 32.472618 -109.848063 294 33847ft 439kts
04-Aug-23 12:31 32.518622 -109.981719 294 33860ft 438kts
04-Aug-23 12:32 32.564498 -110.115549 293 33866ft 436kts
04-Aug-23 12:33 32.609910 -110.248567 293 33861ft 435kts
04-Aug-23 12:34 32.655126 -110.381556 293 33864ft 434kts
04-Aug-23 12:35 32.700004 -110.514078 293 33856ft 433kts
04-Aug-23 12:36 32.744796 -110.646927 293 33855ft 432kts
04-Aug-23 12:37 32.789318 -110.779501 293 33852ft 431kts
04-Aug-23 12:38 32.833529 -110.911698 293 33850ft 430kts
04-Aug-23 12:39 32.877601 -111.044030 292 33846ft 429kts
04-Aug-23 12:40 32.921294 -111.175767 292 33836ft 428kts
04-Aug-23 12:41 32.964864 -111.307681 292 33837ft 427kts
04-Aug-23 12:42 33.008181 -111.439383 292 33837ft 425kts
04-Aug-23 12:43 33.051002 -111.570111 292 33876ft 424kts
04-Aug-23 12:44 33.093615 -111.700751 292 33896ft 422kts
04-Aug-23 12:45 33.136044 -111.831367 292 33914ft 421kts
04-Aug-23 12:46 33.178149 -111.961528 292 33911ft 420kts
04-Aug-23 12:47 33.219990 -112.091417 291 33875ft 420kts
04-Aug-23 12:48 33.261725 -112.221522 291 33874ft 419kts
04-Aug-23 12:49 33.303279 -112.351611 291 33902ft 419kts
04-Aug-23 12:50 33.344696 -112.481822 291 33901ft 418kts
04-Aug-23 12:51 33.385878 -112.611844 291 33908ft 417kts
04-Aug-23 12:52 33.426665 -112.741176 290 33904ft 416kts
04-Aug-23 12:53 33.468473 -112.870606 293 33892ft 415kts
04-Aug-23 12:54 33.514656 -112.997067 293 33868ft 415kts
04-Aug-23 12:55 33.560373 -113.124378 292 33856ft 416kts
04-Aug-23 12:56 33.605891 -113.252192 292 33864ft 416kts
04-Aug-23 12:57 33.651041 -113.379463 292 33869ft 415kts
04-Aug-23 12:58 33.696168 -113.507170 292 33867ft 415kts
04-Aug-23 12:59 33.741103 -113.634844 291 33864ft 414kts
04-Aug-23 13:00 33.785768 -113.762246 291 33850ft 413kts
04-Aug-23 13:01 33.829458 -113.889586 291 33852ft 413kts
04-Aug-23 13:03 33.872587 -114.017634 290 33845ft 412kts
04-Aug-23 13:04 33.911907 -114.146504 281 33848ft 409kts
04-Aug-23 13:05 33.933714 -114.280862 281 33834ft 410kts
04-Aug-23 13:06 33.956218 -114.415756 281 33828ft 410kts
04-Aug-23 13:07 33.978818 -114.550355 281 33834ft 410kts
04-Aug-23 13:08 34.001213 -114.684717 280 33837ft 410kts
04-Aug-23 13:09 34.023544 -114.819663 280 33836ft 409kts
04-Aug-23 13:10 34.045599 -114.953879 280 33852ft 408kts
04-Aug-23 13:11 34.067551 -115.088073 280 33837ft 408kts
04-Aug-23 13:12 34.089286 -115.222215 280 33846ft 406kts
04-Aug-23 13:13 34.110812 -115.355990 280 33849ft 406kts
04-Aug-23 13:14 34.132223 -115.489907 279 33858ft 406kts
04-Aug-23 13:15 34.153538 -115.624157 279 33874ft 406kts
04-Aug-23 13:16 34.157134 -115.759030 264 33874ft 406kts
04-Aug-23 13:17 34.144042 -115.894400 264 33934ft 407kts
04-Aug-23 13:18 34.130783 -116.030360 264 33979ft 407kts
04-Aug-23 13:19 34.117448 -116.165873 264 33986ft 407kts
04-Aug-23 13:20 34.103765 -116.303452 263 31862ft 411kts
04-Aug-23 13:21 34.089508 -116.436868 262 29776ft 394kts
04-Aug-23 13:22 34.075354 -116.568093 262 27731ft 392kts
04-Aug-23 13:23 34.063148 -116.695328 263 25880ft 372kts
04-Aug-23 13:24 34.051790 -116.817998 262 24076ft 369kts
04-Aug-23 13:25 34.038739 -116.940607 259 22197ft 367kts
04-Aug-23 13:26 34.028297 -117.018421 260 21053ft 363kts
04-Aug-23 13:28 33.994746 -117.299113 261 16791ft 349kts
04-Aug-23 13:28 33.983479 -117.394713 261 15351ft 342kts
04-Aug-23 13:29 33.975107 -117.507855 281 13673ft 338kts
04-Aug-23 13:31 33.998354 -117.634629 281 11719ft 328kts
04-Aug-23 13:32 34.001059 -117.741914 262 10086ft 322kts
04-Aug-23 13:32 33.992825 -117.826691 263 9540ft 291kts
04-Aug-23 13:33 33.983412 -117.923396 262 7474ft 291kts
04-Aug-23 13:34 33.973771 -118.021324 263 5799ft 297kts
04-Aug-23 13:35 33.964540 -118.117143 262 4510ft 271kts
04-Aug-23 13:37 33.954895 -118.212990 263 3175ft 223kts
04-Aug-23 13:37 33.948726 -118.272440 262 1909ft 196kts
04-Aug-23 13:38 33.943126 -118.326684 262 1064ft 141kts
04-Aug-23 13:39 33.938069 -118.375620 261 253ft 153kts
04-Aug-23 13:40 33.935414 -118.404175 273 111ft 6kts
04-Aug-23 13:41 33.936522 -118.408817 337 106ft 13kts
04-Aug-23 13:42 33.938475 -118.409155 47 97ft 12kts
04-Aug-23 13:43 33.939094 -118.405145 83 96ft 13kts
04-Aug-23 13:44 33.939536 -118.400754 83 98ft 11kts
04-Aug-23 13:45 33.940450 -118.398280 1 95ft 7kts
04-Aug-23 13:46 33.941979 -118.398210 63 95ft 1kts
04-Aug-23 13:47 33.942049 -118.397786 82 93ft 0kts
04-Aug-23 13:48 33.942049 -118.397780 82 93ft 0kts
04-Aug-23 13:49 33.942049 -118.397780 82 93ft 0kts

Navigation Log

Ident Type
Flight plan parsing failed, navigation log unavailable